Time;durP1;ratioP1;P1;durP2;ratioP2;P2;SDS_P1;SDS_P2;PMS_P1;PMS_P2;Temp;Humidity;BMP_temperature;BMP_pressure;BME280_temperature;BME280_humidity;BME280_pressure;Samples;Min_cycle;Max_cycle;Signal;HPM_P1;HPM_P2
2023/05/23 00:00:04;;;;;;;13.27;6.33;;;;;;;17.66;100.00;101253.13;2079461;28;20335;-68
2023/05/23 00:01:07;;;;;;;18.00;7.00;;;;;;;17.63;100.00;101276.50;2079477;28;20200;-68
2023/05/23 00:02:08;;;;;;;7.67;6.27;;;;;;;17.53;100.00;101249.69;2070796;28;20963;-68
2023/05/23 00:03:09;;;;;;;10.33;5.73;;;;;;;17.63;100.00;101266.03;2070493;28;20915;-68
2023/05/23 00:04:15;;;;;;;10.07;6.63;;;;;;;17.63;100.00;101261.69;2076857;28;20177;-68
2023/05/23 00:05:17;;;;;;;7.87;5.73;;;;;;;17.56;100.00;101259.94;2075045;28;20446;-68
2023/05/23 00:06:21;;;;;;;8.87;6.07;;;;;;;17.55;100.00;101255.59;2080331;28;20537;-68
2023/05/23 00:07:21;;;;;;;8.93;5.83;;;;;;;17.50;100.00;101255.44;2077319;28;20436;-68
2023/05/23 00:08:22;;;;;;;7.50;5.73;;;;;;;17.37;100.00;101242.31;2074760;28;20511;-68
2023/05/23 00:09:22;;;;;;;9.57;6.10;;;;;;;17.45;100.00;101254.03;2079249;28;20238;-68
2023/05/23 00:10:23;;;;;;;7.83;6.13;;;;;;;17.36;100.00;101231.59;2074431;28;20177;-68
2023/05/23 00:11:25;;;;;;;8.07;5.90;;;;;;;16.21;100.00;101058.78;2073021;28;20267;-68
2023/05/23 00:12:26;;;;;;;11.23;6.07;;;;;;;17.41;100.00;101256.22;2072297;28;20277;-68
2023/05/23 00:13:26;;;;;;;7.57;6.00;;;;;;;17.41;100.00;101250.63;2078176;28;20810;-68
2023/05/23 00:14:30;;;;;;;8.77;6.00;;;;;;;17.41;100.00;101245.00;2075252;28;20632;-68
2023/05/23 00:15:32;;;;;;;8.47;5.87;;;;;;;17.42;100.00;101248.56;2078142;28;20625;-68
2023/05/23 00:16:33;;;;;;;10.27;6.07;;;;;;;17.41;100.00;101250.63;2081778;28;20863;-68
2023/05/23 00:17:35;;;;;;;11.57;5.27;;;;;;;17.42;100.00;101250.13;2072779;28;20424;-68
2023/05/23 00:18:39;;;;;;;8.90;5.90;;;;;;;17.45;100.00;101248.41;2073900;28;20560;-68
2023/05/23 00:19:39;;;;;;;8.00;5.17;;;;;;;17.39;100.00;101243.91;2080997;28;20427;-68
2023/05/23 00:20:43;;;;;;;7.77;5.70;;;;;;;17.29;100.00;101227.03;2083352;28;20430;-68
2023/05/23 00:21:49;;;;;;;8.93;5.50;;;;;;;17.45;100.00;101253.25;2072989;28;20196;-68
2023/05/23 00:22:51;;;;;;;11.30;5.53;;;;;;;17.44;100.00;101254.50;2072817;28;20690;-68
2023/05/23 00:23:52;;;;;;;8.93;5.47;;;;;;;16.64;100.00;101139.75;2079731;28;20538;-68
2023/05/23 00:24:53;;;;;;;9.13;5.50;;;;;;;17.44;100.00;101246.09;2080353;28;20430;-68
2023/05/23 00:25:53;;;;;;;7.10;5.30;;;;;;;17.40;100.00;101242.66;2080261;28;20744;-68
2023/05/23 00:26:53;;;;;;;8.10;5.30;;;;;;;17.38;100.00;101243.09;2077033;28;20201;-68
2023/05/23 00:27:54;;;;;;;6.73;5.37;;;;;;;17.39;100.00;101247.47;2075272;28;20298;-68
2023/05/23 00:28:55;;;;;;;7.33;5.80;;;;;;;16.73;100.00;101141.81;2079000;28;20195;-68
2023/05/23 00:29:55;;;;;;;9.60;5.70;;;;;;;17.41;100.00;101244.22;2075127;28;20216;-68
2023/05/23 00:30:56;;;;;;;7.90;5.63;;;;;;;17.42;100.00;101247.31;2080463;28;20424;-68
2023/05/23 00:31:56;;;;;;;9.27;5.50;;;;;;;17.40;100.00;101240.63;2080756;28;20221;-68
2023/05/23 00:32:57;;;;;;;11.57;5.57;;;;;;;17.42;100.00;101247.31;2074807;28;20192;-68
2023/05/23 00:33:58;;;;;;;7.67;5.83;;;;;;;17.41;100.00;101241.41;2082339;28;20683;-68
2023/05/23 00:34:58;;;;;;;7.63;5.70;;;;;;;17.41;100.00;101247.03;2079884;28;20465;-68
2023/05/23 00:35:59;;;;;;;6.27;5.10;;;;;;;16.90;100.00;101171.09;2080665;28;20710;-68
2023/05/23 00:37:01;;;;;;;8.43;5.33;;;;;;;17.36;100.00;101235.16;2078731;28;20172;-68
2023/05/23 00:38:02;;;;;;;7.27;5.20;;;;;;;17.32;100.00;101237.31;2072528;28;20194;-68
2023/05/23 00:39:03;;;;;;;9.97;5.03;;;;;;;17.26;100.00;101236.38;2071846;28;20434;-68
2023/05/23 00:40:05;;;;;;;8.07;5.97;;;;;;;17.29;100.00;101234.66;2078663;28;20513;-68
2023/05/23 00:41:05;;;;;;;5.93;5.00;;;;;;;17.26;100.00;101238.41;2078379;28;20494;-68
2023/05/23 00:42:06;;;;;;;6.13;4.93;;;;;;;17.24;100.00;101236.06;2080280;28;20440;-68
2023/05/23 00:43:09;;;;;;;8.57;5.17;;;;;;;17.25;100.00;101234.03;2080409;28;20207;-68
2023/05/23 00:44:11;;;;;;;10.80;5.37;;;;;;;17.24;100.00;101232.47;2080248;28;20200;-68
2023/05/23 00:45:11;;;;;;;8.60;5.80;;;;;;;16.37;100.00;101094.88;2085354;28;20510;-68
2023/05/23 00:46:13;;;;;;;7.47;5.57;;;;;;;17.21;100.00;101233.41;2085896;28;20528;-68
2023/05/23 00:47:13;;;;;;;8.57;5.57;;;;;;;17.14;100.00;101222.47;2079579;28;20257;-68
2023/05/23 00:48:14;;;;;;;9.37;5.93;;;;;;;16.74;100.00;101163.72;2072194;28;20431;-68
2023/05/23 00:49:18;;;;;;;7.17;5.50;;;;;;;17.20;100.00;101234.63;2079231;28;20966;-68
2023/05/23 00:50:20;;;;;;;7.53;5.23;;;;;;;17.18;100.00;101237.13;2073898;28;20539;-68
2023/05/23 00:51:20;;;;;;;7.03;6.00;;;;;;;17.17;100.00;101229.97;2080094;28;20448;-68
2023/05/23 00:52:21;;;;;;;8.53;5.30;;;;;;;17.18;100.00;101231.53;2078947;28;21074;-68
2023/05/23 00:53:22;;;;;;;7.87;5.13;;;;;;;17.20;100.00;101227.03;2076069;28;20509;-68
2023/05/23 00:54:29;;;;;;;10.47;5.13;;;;;;;17.19;100.00;101236.66;2080207;28;20195;-68
2023/05/23 00:55:30;;;;;;;9.23;5.87;;;;;;;17.17;100.00;101232.78;2078180;28;20622;-68
2023/05/23 00:56:30;;;;;;;7.53;5.10;;;;;;;17.06;100.00;101215.63;2080219;28;20496;-68
2023/05/23 00:57:33;;;;;;;7.23;5.03;;;;;;;16.99;100.00;101208.28;2079954;28;20584;-68
2023/05/23 00:58:34;;;;;;;7.13;5.60;;;;;;;17.09;100.00;101237.09;2072184;28;20307;-68
2023/05/23 00:59:36;;;;;;;8.87;5.73;;;;;;;17.06;100.00;101240.84;2079595;28;20940;-68
2023/05/23 01:00:37;;;;;;;11.17;4.70;;;;;;;17.04;100.00;101241.28;2080781;28;20181;-68
2023/05/23 01:01:39;;;;;;;7.80;5.17;;;;;;;16.95;100.00;101249.66;2078103;28;20436;-68
2023/05/23 01:02:43;;;;;;;6.47;4.97;;;;;;;16.44;100.00;101169.38;2076230;28;20975;-68
2023/05/23 01:03:44;;;;;;;6.17;5.20;;;;;;;16.89;100.00;101245.91;2075902;28;20448;-68
2023/05/23 01:04:44;;;;;;;7.17;5.33;;;;;;;16.86;100.00;101246.81;2080231;28;20453;-68
2023/05/23 01:05:45;;;;;;;8.60;6.00;;;;;;;16.75;100.00;101254.84;2079925;28;20694;-68
2023/05/23 01:06:47;;;;;;;6.97;6.17;;;;;;;16.64;100.00;101259.31;2080214;28;20192;-68
2023/05/23 01:07:49;;;;;;;11.43;6.90;;;;;;;15.65;100.00;101161.53;2072185;28;20180;-68
2023/05/23 01:08:50;;;;;;;8.13;6.37;;;;;;;16.29;100.00;101277.41;2079511;28;20870;-68
2023/05/23 01:09:51;;;;;;;8.77;6.90;;;;;;;16.36;100.00;101282.72;2080116;28;20446;-68
2023/05/23 01:10:51;;;;;;;10.13;6.47;;;;;;;16.30;100.00;101274.13;2076605;28;20221;-68
2023/05/23 01:12:19;;;;;;;10.83;7.00;;;;;;;16.06;100.00;101211.53;2080447;28;20589;-68
2023/05/23 01:13:46;;;;;;;13.03;6.80;;;;;;;16.53;100.00;101270.13;2074537;28;20194;-68
2023/05/23 01:14:55;;;;;;;13.20;8.97;;;;;;;16.57;100.00;101267.97;2072000;28;20458;-68
2023/05/23 01:16:05;;;;;;;13.43;8.70;;;;;;;16.61;100.00;101277.00;2080733;28;20407;-68
2023/05/23 01:17:20;;;;;;;11.87;8.20;;;;;;;16.04;100.00;101202.81;2080392;28;20839;-68
2023/05/23 01:18:37;;;;;;;11.90;8.77;;;;;;;16.42;100.00;101252.97;2073752;28;20803;-68
2023/05/23 01:19:37;;;;;;;9.00;8.10;;;;;;;16.67;100.00;101280.78;2077925;28;20414;-68
2023/05/23 01:20:51;;;;;;;15.00;9.30;;;;;;;16.60;100.00;101276.22;2072382;28;20426;-68
2023/05/23 01:21:54;;;;;;;16.57;8.00;;;;;;;16.66;100.00;101279.97;2074063;28;20696;-68
2023/05/23 01:23:00;;;;;;;14.03;8.87;;;;;;;16.68;100.00;101276.72;2079887;28;20963;-68
2023/05/23 01:24:06;;;;;;;9.53;7.77;;;;;;;16.73;100.00;101280.97;2080695;28;20414;-68
2023/05/23 01:25:28;;;;;;;10.33;7.00;;;;;;;16.74;100.00;101280.50;2080761;28;20407;-68
2023/05/23 01:27:01;;;;;;;10.07;7.23;;;;;;;16.76;100.00;101273.19;2078103;28;20507;-68
2023/05/23 01:28:04;;;;;;;9.03;7.80;;;;;;;16.78;100.00;101278.34;2078258;28;20442;-68
2023/05/23 01:29:12;;;;;;;11.33;7.30;;;;;;;16.79;100.00;101269.50;2079575;28;20432;-68
2023/05/23 01:30:18;;;;;;;8.83;6.90;;;;;;;16.14;100.00;101170.88;2076567;28;20440;-68
2023/05/23 01:31:20;;;;;;;10.23;6.63;;;;;;;15.68;100.00;101085.19;2072755;28;20432;-68
2023/05/23 01:32:23;;;;;;;8.87;6.93;;;;;;;16.81;100.00;101261.41;2074750;28;20843;-68
2023/05/23 01:33:25;;;;;;;12.37;8.47;;;;;;;16.89;100.00;101262.69;2077673;28;20581;-68
2023/05/23 01:34:25;;;;;;;12.07;8.23;;;;;;;16.89;100.00;101268.28;2071935;28;20464;-68
2023/05/23 01:35:26;;;;;;;10.63;7.77;;;;;;;16.92;100.00;101269.41;2079674;28;20428;-68
2023/05/23 01:36:27;;;;;;;12.57;7.50;;;;;;;16.85;100.00;101250.84;2077530;28;20647;-68
2023/05/23 01:37:28;;;;;;;12.93;8.27;;;;;;;16.92;100.00;101264.59;2074096;28;20858;-68
2023/05/23 01:38:29;;;;;;;13.63;9.20;;;;;;;16.96;100.00;101278.44;2074240;28;20753;-68
2023/05/23 01:39:29;;;;;;;11.13;9.20;;;;;;;16.93;100.00;101262.56;2075998;28;20863;-67
2023/05/23 01:40:30;;;;;;;11.83;8.13;;;;;;;15.80;100.00;101084.34;2080347;28;20326;-68
2023/05/23 01:41:30;;;;;;;12.63;8.57;;;;;;;16.92;100.00;101261.78;2078221;28;20177;-68
2023/05/23 01:42:31;;;;;;;14.87;8.57;;;;;;;16.90;100.00;101255.84;2073413;28;20185;-68
2023/05/23 01:43:32;;;;;;;11.63;8.37;;;;;;;16.89;100.00;101257.09;2071998;28;20730;-68
2023/05/23 01:44:34;;;;;;;18.00;9.20;;;;;;;16.87;100.00;101267.19;2072002;28;20204;-68
2023/05/23 01:45:35;;;;;;;23.37;9.37;;;;;;;16.79;100.00;101251.91;2072036;28;20181;-67
2023/05/23 01:46:38;;;;;;;18.83;9.03;;;;;;;15.62;100.00;101070.25;2078451;28;20491;-68
2023/05/23 01:47:40;;;;;;;20.60;9.20;;;;;;;16.79;100.00;101252.69;2080020;28;20182;-67
2023/05/23 01:48:41;;;;;;;16.80;8.67;;;;;;;16.76;100.00;101255.66;2079983;28;20538;-68
2023/05/23 01:49:43;;;;;;;14.10;8.53;;;;;;;16.76;100.00;101264.81;2075798;28;20433;-68
2023/05/23 01:50:44;;;;;;;18.13;8.93;;;;;;;16.76;100.00;101264.81;2075786;28;20930;-68
2023/05/23 01:51:45;;;;;;;14.97;9.20;;;;;;;16.73;100.00;101253.75;2080074;28;20437;-68
2023/05/23 01:52:46;;;;;;;14.77;8.17;;;;;;;16.83;100.00;101255.34;2079777;28;20415;-68
2023/05/23 01:53:47;;;;;;;15.70;8.20;;;;;;;16.80;100.00;101270.28;2071856;28;20174;-68
2023/05/23 01:54:49;;;;;;;13.97;8.70;;;;;;;16.79;100.00;101255.50;2078769;28;20184;-68
2023/05/23 01:55:51;;;;;;;18.53;9.20;;;;;;;16.80;100.00;101259.09;2080362;28;20942;-68
2023/05/23 01:56:51;;;;;;;17.23;8.80;;;;;;;16.79;100.00;101255.50;2080159;28;20455;-68
2023/05/23 01:57:56;;;;;;;19.63;8.57;;;;;;;16.80;100.00;101254.25;2076148;28;20468;-68
2023/05/23 01:58:56;;;;;;;17.93;8.37;;;;;;;16.81;100.00;101255.81;2071235;28;20237;-68
2023/05/23 01:59:57;;;;;;;19.70;8.67;;;;;;;16.81;100.00;101252.25;2073923;28;20428;-68
2023/05/23 02:00:58;;;;;;;25.60;8.73;;;;;;;16.81;100.00;101255.81;2078868;28;20176;-68
2023/05/23 02:01:58;;;;;;;35.03;10.07;;;;;;;16.83;100.00;101260.94;2079600;28;20183;-68
2023/05/23 02:02:59;;;;;;;35.33;9.80;;;;;;;16.83;100.00;101263.00;2072050;28;20175;-68
2023/05/23 02:03:59;;;;;;;22.50;8.93;;;;;;;16.83;100.00;101267.34;2072145;28;20272;-68
2023/05/23 02:05:00;;;;;;;14.90;7.63;;;;;;;16.52;100.00;101209.03;2071470;28;20183;-68
2023/05/23 02:06:00;;;;;;;10.43;6.73;;;;;;;16.66;100.00;101238.00;2073924;28;20189;-68
2023/05/23 02:07:01;;;;;;;12.33;6.43;;;;;;;16.81;100.00;101264.22;2076044;28;20648;-68
2023/05/23 02:08:01;;;;;;;16.07;7.10;;;;;;;16.83;100.00;101265.78;2071934;28;20181;-68
2023/05/23 02:09:01;;;;;;;9.10;6.80;;;;;;;16.77;100.00;101257.19;2071779;28;20193;-68
2023/05/23 02:10:03;;;;;;;16.67;7.00;;;;;;;16.79;100.00;101258.28;2079153;28;20176;-67
2023/05/23 02:11:04;;;;;;;18.80;7.07;;;;;;;16.71;100.00;101250.63;2080299;28;20253;-68
2023/05/23 02:12:05;;;;;;;19.83;7.30;;;;;;;16.76;100.00;101255.66;2080085;28;21071;-68
2023/05/23 02:13:05;;;;;;;13.70;5.57;;;;;;;16.75;100.00;101254.09;2073779;28;20277;-68
2023/05/23 02:14:06;;;;;;;13.60;6.30;;;;;;;16.73;100.00;101250.94;2076324;28;20183;-67
2023/05/23 02:15:07;;;;;;;12.77;6.20;;;;;;;16.12;100.00;101172.56;2079694;28;20195;-68
2023/05/23 02:16:07;;;;;;;6.47;5.53;;;;;;;16.71;100.00;101250.63;2079894;28;20565;-68
2023/05/23 02:17:13;;;;;;;11.83;5.80;;;;;;;15.93;100.00;101142.97;2083967;28;20433;-67
2023/05/23 02:18:14;;;;;;;8.83;5.93;;;;;;;16.68;100.00;101254.34;2072429;28;20690;-68
2023/05/23 02:19:14;;;;;;;8.33;5.77;;;;;;;16.65;100.00;101247.66;2079457;28;20915;-68
2023/05/23 02:20:14;;;;;;;7.80;5.60;;;;;;;16.66;100.00;101249.19;2080099;28;20729;-68
2023/05/23 02:21:15;;;;;;;8.67;5.70;;;;;;;16.68;100.00;101254.34;2079608;28;20748;-68
2023/05/23 02:22:15;;;;;;;9.40;5.97;;;;;;;15.76;100.00;101128.41;2073971;28;20189;-68
2023/05/23 02:23:16;;;;;;;11.40;6.43;;;;;;;16.63;100.00;101246.53;2076609;28;20312;-68
2023/05/23 02:24:16;;;;;;;10.87;5.93;;;;;;;16.61;100.00;101249.03;2075246;28;20191;-67
2023/05/23 02:25:17;;;;;;;9.50;6.43;;;;;;;16.58;100.00;101256.31;2071155;28;20754;-67
2023/05/23 02:26:17;;;;;;;10.30;6.80;;;;;;;16.57;100.00;101251.19;2075858;28;20690;-68
2023/05/23 02:27:18;;;;;;;8.70;6.17;;;;;;;16.35;100.00;101216.84;2079790;28;20755;-68
2023/05/23 02:28:18;;;;;;;10.70;6.00;;;;;;;16.59;100.00;101251.53;2079374;28;20186;-68
2023/05/23 02:29:19;;;;;;;9.57;6.23;;;;;;;16.40;100.00;101225.44;2072204;28;20671;-67
2023/05/23 02:30:19;;;;;;;8.13;6.10;;;;;;;16.35;100.00;101226.00;2071883;28;20645;-68
2023/05/23 02:31:20;;;;;;;7.30;6.00;;;;;;;16.62;100.00;101258.97;2077224;28;20557;-68
2023/05/23 02:32:20;;;;;;;9.07;5.63;;;;;;;16.37;100.00;101223.53;2080105;28;20304;-68
2023/05/23 02:33:21;;;;;;;9.20;5.60;;;;;;;16.63;100.00;101255.72;2076896;28;20175;-68
2023/05/23 02:34:21;;;;;;;6.87;5.73;;;;;;;16.64;100.00;101264.91;2071293;28;20268;-68
2023/05/23 02:35:22;;;;;;;10.23;5.60;;;;;;;16.64;100.00;101262.13;2071643;28;20197;-68
2023/05/23 02:36:22;;;;;;;10.40;5.50;;;;;;;16.65;100.00;101269.28;2079831;28;20772;-68
2023/05/23 02:37:22;;;;;;;8.47;5.43;;;;;;;16.08;100.00;101175.50;2079913;28;20205;-68
2023/05/23 02:38:23;;;;;;;8.43;4.93;;;;;;;16.64;100.00;101259.31;2078974;28;20300;-68
2023/05/23 02:39:23;;;;;;;6.87;5.20;;;;;;;16.63;100.00;101255.72;2073518;28;20205;-68
2023/05/23 02:40:24;;;;;;;10.20;5.13;;;;;;;16.65;100.00;101258.84;2072103;28;20256;-67
2023/05/23 02:41:24;;;;;;;12.03;5.10;;;;;;;16.64;100.00;101260.09;2077534;28;20199;-68
2023/05/23 02:42:25;;;;;;;10.77;5.40;;;;;;;16.01;100.00;101155.41;2080124;28;20273;-67
2023/05/23 02:43:25;;;;;;;10.37;5.50;;;;;;;16.66;100.00;101257.59;2078934;28;20212;-68
2023/05/23 02:44:25;;;;;;;10.73;5.50;;;;;;;16.57;100.00;101236.44;2071975;28;20188;-68
2023/05/23 02:45:26;;;;;;;8.50;5.23;;;;;;;16.68;100.00;101255.13;2073803;28;20216;-68
2023/05/23 02:46:26;;;;;;;11.20;5.40;;;;;;;16.68;100.00;101259.94;2080029;28;20599;-68
2023/05/23 02:47:27;;;;;;;8.50;5.47;;;;;;;16.67;100.00;101252.78;2074534;28;20225;-68
2023/05/23 02:48:27;;;;;;;6.37;4.90;;;;;;;15.42;100.00;101057.88;2075683;28;20199;-68
2023/05/23 02:49:28;;;;;;;8.33;5.20;;;;;;;16.63;100.00;101258.53;2079335;28;20596;-68
2023/05/23 02:50:28;;;;;;;10.43;5.20;;;;;;;16.58;100.00;101249.19;2077581;28;20752;-68
2023/05/23 02:51:30;;;;;;;10.33;5.10;;;;;;;16.63;100.00;101252.16;2071466;28;20177;-68
2023/05/23 02:52:31;;;;;;;7.50;4.77;;;;;;;15.80;100.00;101134.66;2078769;28;20200;-68
2023/05/23 02:53:31;;;;;;;6.60;4.80;;;;;;;16.50;100.00;101241.03;2071609;28;20621;-68
2023/05/23 02:54:32;;;;;;;9.83;5.33;;;;;;;16.63;100.00;101252.16;2071384;28;20559;-68
2023/05/23 02:55:32;;;;;;;11.07;4.73;;;;;;;16.62;100.00;101252.63;2077104;28;20735;-68
2023/05/23 02:56:33;;;;;;;10.13;4.97;;;;;;;16.63;100.00;101255.72;2076731;28;20659;-68
2023/05/23 02:57:33;;;;;;;9.70;4.97;;;;;;;16.64;100.00;101248.13;2076253;28;20200;-68
2023/05/23 02:58:37;;;;;;;7.53;5.53;;;;;;;16.63;100.00;101261.34;2071332;28;20241;-68
2023/05/23 02:59:37;;;;;;;10.73;5.40;;;;;;;15.62;100.00;101103.00;2071250;28;20225;-68
2023/05/23 03:00:38;;;;;;;8.23;4.83;;;;;;;16.59;100.00;101252.28;2078829;28;20426;-68
2023/05/23 03:01:38;;;;;;;12.37;5.30;;;;;;;16.59;100.00;101252.28;2073393;28;20308;-68
2023/05/23 03:02:38;;;;;;;8.63;5.27;;;;;;;16.61;100.00;101251.84;2079938;28;20187;-68
2023/05/23 03:03:40;;;;;;;14.37;5.40;;;;;;;16.52;100.00;101245.41;2073196;28;20198;-68
2023/05/23 03:04:40;;;;;;;12.90;5.30;;;;;;;16.57;100.00;101270.78;2076313;28;20184;-68
2023/05/23 03:05:41;;;;;;;12.47;5.27;;;;;;;16.57;100.00;101265.16;2079694;28;20449;-67
2023/05/23 03:06:43;;;;;;;8.07;5.20;;;;;;;16.55;100.00;101262.06;2078925;28;20239;-68
2023/05/23 03:07:43;;;;;;;8.90;5.53;;;;;;;16.53;100.00;101254.13;2079779;28;20180;-68
2023/05/23 03:08:43;;;;;;;9.73;5.10;;;;;;;16.52;100.00;101263.75;2078457;28;20415;-68
2023/05/23 03:09:44;;;;;;;9.90;5.47;;;;;;;16.50;100.00;101262.66;2074121;28;20171;-68
2023/05/23 03:10:44;;;;;;;11.13;5.20;;;;;;;16.50;100.00;101265.47;2079957;28;20192;-68
2023/05/23 03:11:45;;;;;;;10.47;5.77;;;;;;;16.52;100.00;101256.59;2087519;28;20200;-68
2023/05/23 03:13:04;;;;;;;8.17;5.37;;;;;;;16.53;100.00;101258.94;2082006;28;20211;-68
2023/05/23 03:14:04;;;;;;;11.27;5.67;;;;;;;16.52;100.00;101263.75;2079254;28;20242;-68
2023/05/23 03:15:05;;;;;;;9.33;5.10;;;;;;;16.49;100.00;101264.66;2079372;28;20446;-67
2023/05/23 03:16:06;;;;;;;11.67;5.60;;;;;;;16.42;100.00;101255.00;2079831;28;20191;-68
2023/05/23 03:17:06;;;;;;;9.30;5.10;;;;;;;16.47;100.00;101263.56;2079539;28;20191;-67
2023/05/23 03:18:06;;;;;;;8.40;5.10;;;;;;;16.49;100.00;101266.69;2076702;28;20191;-68
2023/05/23 03:19:07;;;;;;;9.43;5.27;;;;;;;16.46;100.00;101262.00;2071511;28;20182;-68
2023/05/23 03:20:08;;;;;;;8.23;5.37;;;;;;;16.49;100.00;101264.66;2079532;28;20653;-68
2023/05/23 03:21:09;;;;;;;8.20;5.60;;;;;;;16.50;100.00;101263.41;2071832;28;20714;-68
2023/05/23 03:22:09;;;;;;;12.13;5.90;;;;;;;16.52;100.00;101260.97;2076583;28;20441;-68
2023/05/23 03:23:10;;;;;;;11.00;5.87;;;;;;;16.54;100.00;101258.47;2073258;28;20541;-68
2023/05/23 03:24:10;;;;;;;15.63;6.67;;;;;;;16.53;100.00;101262.50;2073106;28;20207;-68
2023/05/23 03:25:11;;;;;;;22.07;6.67;;;;;;;16.55;100.00;101271.22;2075711;28;20184;-68
2023/05/23 03:26:11;;;;;;;21.23;6.90;;;;;;;16.57;100.00;101256.78;2074388;28;20238;-68
2023/05/23 03:27:11;;;;;;;13.60;6.30;;;;;;;16.59;100.00;101259.91;2078140;28;20256;-67
2023/05/23 03:28:12;;;;;;;11.90;5.73;;;;;;;16.57;100.00;101259.56;2071561;28;20186;-68
2023/05/23 03:29:12;;;;;;;15.33;6.27;;;;;;;16.62;100.00;101261.03;2079020;28;20274;-68
2023/05/23 03:30:13;;;;;;;12.67;6.03;;;;;;;16.62;100.00;101263.81;2072238;28;20196;-68
2023/05/23 03:31:13;;;;;;;11.83;5.83;;;;;;;16.63;100.00;101263.34;2078006;28;20203;-68
2023/05/23 03:32:13;;;;;;;13.97;5.47;;;;;;;16.63;100.00;101260.53;2079729;28;20205;-68
2023/05/23 03:33:14;;;;;;;12.17;5.77;;;;;;;16.60;100.00;101262.22;2074851;28;20276;-68
2023/05/23 03:34:15;;;;;;;12.80;5.83;;;;;;;16.61;100.00;101263.03;2073292;28;20280;-68
2023/05/23 03:35:16;;;;;;;10.77;5.90;;;;;;;16.56;100.00;101260.81;2073345;28;20466;-68
2023/05/23 03:36:16;;;;;;;10.67;5.73;;;;;;;16.52;100.00;101265.00;2092774;28;20211;-68
2023/05/23 03:37:16;;;;;;;13.03;6.57;;;;;;;16.49;100.00;101256.28;2084398;28;20692;-67
2023/05/23 03:38:17;;;;;;;7.33;5.37;;;;;;;16.49;100.00;101263.91;2071532;28;20217;-68
2023/05/23 03:39:17;;;;;;;10.80;5.93;;;;;;;16.49;100.00;101264.66;2076857;28;20185;-68
2023/05/23 03:40:18;;;;;;;8.83;5.37;;;;;;;16.47;100.00;101268.38;2080594;28;20180;-67
2023/05/23 03:41:18;;;;;;;7.70;5.40;;;;;;;15.97;100.00;101196.69;2076781;28;20197;-68
2023/05/23 03:42:19;;;;;;;8.23;5.07;;;;;;;16.52;100.00;101266.56;2078686;28;20663;-68
2023/05/23 03:43:19;;;;;;;15.03;5.67;;;;;;;16.53;100.00;101265.31;2078819;28;20177;-68
2023/05/23 03:44:20;;;;;;;8.63;5.80;;;;;;;16.56;100.00;101263.63;2080945;28;20566;-67
2023/05/23 03:45:20;;;;;;;10.60;5.47;;;;;;;16.58;100.00;101264.72;2081250;28;20230;-68
2023/05/23 03:46:21;;;;;;;13.07;6.10;;;;;;;16.61;100.00;101271.41;2073157;28;20197;-68
2023/05/23 03:47:23;;;;;;;7.53;5.77;;;;;;;16.61;100.00;101265.81;2080218;28;20193;-68
2023/05/23 03:48:23;;;;;;;10.53;6.00;;;;;;;15.92;100.00;101155.34;2080239;28;20270;-68
2023/05/23 03:49:25;;;;;;;8.60;6.23;;;;;;;16.42;100.00;101233.38;2080905;28;20438;-68
2023/05/23 03:50:26;;;;;;;9.13;5.87;;;;;;;15.92;100.00;101155.34;2077368;28;20185;-68
2023/05/23 03:51:28;;;;;;;10.87;6.10;;;;;;;15.54;100.00;101096.13;2075760;28;20944;-68
2023/05/23 03:52:28;;;;;;;9.17;5.90;;;;;;;16.70;100.00;101265.88;2081220;28;20866;-68
2023/05/23 03:53:28;;;;;;;11.93;6.43;;;;;;;16.71;100.00;101265.41;2070764;28;20466;-67
2023/05/23 03:54:29;;;;;;;11.30;7.13;;;;;;;16.75;100.00;101268.84;2077825;28;20181;-68
2023/05/23 03:55:31;;;;;;;12.07;6.30;;;;;;;16.36;100.00;101221.19;2076275;28;20250;-68
2023/05/23 03:56:31;;;;;;;13.47;6.40;;;;;;;16.67;100.00;101272.38;2077668;28;20193;-68
2023/05/23 03:57:32;;;;;;;6.43;5.67;;;;;;;16.65;100.00;101272.84;2078968;28;20536;-69
2023/05/23 03:58:32;;;;;;;8.47;5.87;;;;;;;16.61;100.00;101265.81;2079826;28;20189;-68
2023/05/23 03:59:33;;;;;;;10.17;5.43;;;;;;;16.62;100.00;101261.78;2080153;28;20204;-67
2023/05/23 04:00:34;;;;;;;9.00;5.80;;;;;;;16.73;100.00;101285.31;2081278;28;20196;-68
2023/05/23 04:01:34;;;;;;;12.80;5.97;;;;;;;16.40;100.00;101222.63;2080646;28;20418;-68
2023/05/23 04:02:35;;;;;;;14.07;6.30;;;;;;;16.64;100.00;101262.88;2081162;28;20212;-68
2023/05/23 04:03:35;;;;;;;15.63;6.00;;;;;;;16.74;100.00;101275.69;2080477;28;20323;-67
2023/05/23 04:04:36;;;;;;;8.90;6.30;;;;;;;16.71;100.00;101276.59;2080041;28;20251;-67
2023/05/23 04:05:36;;;;;;;11.47;5.93;;;;;;;16.74;100.00;101278.47;2075113;28;20268;-67
2023/05/23 04:06:37;;;;;;;12.60;6.20;;;;;;;16.71;100.00;101264.63;2074564;28;20208;-67
2023/05/23 04:07:37;;;;;;;8.20;5.87;;;;;;;16.53;100.00;101237.34;2075847;28;20182;-67
2023/05/23 04:08:40;;;;;;;10.63;5.97;;;;;;;16.82;100.00;101281.78;2078209;28;20185;-67
2023/05/23 04:09:41;;;;;;;11.60;6.13;;;;;;;16.88;100.00;101273.59;2077952;28;20177;-67
2023/05/23 04:10:41;;;;;;;12.97;5.87;;;;;;;16.92;100.00;101275.00;2072769;28;20510;-67
2023/05/23 04:11:43;;;;;;;11.40;5.80;;;;;;;16.18;100.00;101170.75;2073002;28;20236;-67
2023/05/23 04:12:43;;;;;;;10.40;6.17;;;;;;;16.76;100.00;101250.81;2078074;28;20589;-67
2023/05/23 04:13:45;;;;;;;10.90;7.03;;;;;;;16.97;100.00;101280.00;2081463;28;20528;-67
2023/05/23 04:14:47;;;;;;;12.03;7.20;;;;;;;17.02;100.00;101280.19;2078479;28;20280;-67
2023/05/23 04:15:47;;;;;;;11.40;6.03;;;;;;;17.05;100.00;101275.69;2079194;28;20454;-67
2023/05/23 04:16:48;;;;;;;16.13;7.73;;;;;;;16.94;100.00;101259.31;2078361;28;20484;-67
2023/05/23 04:17:50;;;;;;;17.73;8.73;;;;;;;16.53;100.00;101188.97;2081914;28;20735;-67
2023/05/23 04:18:50;;;;;;;14.40;7.87;;;;;;;17.09;100.00;101263.09;2080370;28;20220;-67
2023/05/23 04:19:51;;;;;;;12.63;7.07;;;;;;;17.18;100.00;101279.94;2079953;28;20451;-67
2023/05/23 04:20:51;;;;;;;11.10;6.33;;;;;;;17.21;100.00;101281.78;2082988;28;20198;-67
2023/05/23 04:21:52;;;;;;;14.93;6.80;;;;;;;17.24;100.00;101271.69;2076291;28;20186;-67
2023/05/23 04:22:52;;;;;;;14.20;6.07;;;;;;;16.58;100.00;101175.19;2083564;28;20176;-67
2023/05/23 04:23:52;;;;;;;9.77;5.90;;;;;;;17.33;100.00;101292.13;2073234;28;20205;-67
2023/05/23 04:24:53;;;;;;;11.57;5.83;;;;;;;17.38;100.00;101285.13;2078224;28;20710;-67
2023/05/23 04:25:54;;;;;;;9.57;5.83;;;;;;;17.41;100.00;101278.63;2079241;28;20337;-67
2023/05/23 04:26:55;;;;;;;8.10;5.30;;;;;;;17.49;100.00;101279.13;2078783;28;20199;-67
2023/05/23 04:27:55;;;;;;;11.10;5.60;;;;;;;17.54;100.00;101273.66;2079299;28;20663;-67
2023/05/23 04:28:55;;;;;;;11.17;5.53;;;;;;;17.61;100.00;101278.97;2078588;28;20803;-67
2023/05/23 04:29:57;;;;;;;12.63;5.63;;;;;;;17.67;100.00;101279.13;2081576;28;20191;-67
2023/05/23 04:30:57;;;;;;;9.53;5.70;;;;;;;17.66;100.00;101266.38;2078634;28;20638;-67
2023/05/23 04:31:57;;;;;;;8.10;5.60;;;;;;;17.70;100.00;101264.97;2079079;28;20478;-67
2023/05/23 04:32:58;;;;;;;10.23;5.60;;;;;;;17.70;100.00;101267.00;2079031;28;20194;-68
2023/05/23 04:33:59;;;;;;;12.30;5.73;;;;;;;17.72;100.00;101282.13;2079488;28;20244;-68
2023/05/23 04:35:01;;;;;;;10.40;5.17;;;;;;;17.61;100.00;101266.97;2078609;28;20479;-66
2023/05/23 04:36:01;;;;;;;7.43;5.60;;;;;;;17.58;100.00;101276.31;2089318;28;20216;-68
2023/05/23 04:37:02;;;;;;;9.17;5.30;;;;;;;17.25;100.00;101234.03;2077207;28;20977;-67
2023/05/23 04:38:02;;;;;;;7.43;5.50;;;;;;;17.63;100.00;101280.06;2074689;28;20261;-69
2023/05/23 04:39:04;;;;;;;7.67;5.23;;;;;;;17.67;100.00;101279.13;2078681;28;20726;-69
2023/05/23 04:40:06;;;;;;;8.00;5.20;;;;;;;17.71;100.00;101280.53;2078971;28;20762;-68
2023/05/23 04:41:12;;;;;;;6.90;5.40;;;;;;;17.64;100.00;101261.22;2078167;28;20473;-67